Time;durP1;ratioP1;P1;durP2;ratioP2;P2;SDS_P1;SDS_P2;PMS_P1;PMS_P2;Temp;Humidity;BMP_temperature;BMP_pressure;BME280_temperature;BME280_humidity;BME280_pressure;Samples;Min_cycle;Max_cycle;Signal;HPM_P1;HPM_P2
2023/06/13 00:00:03;;;;;;;11.23;7.65;;;;;;;;;;5091585;28;20060;-68
2023/06/13 00:02:31;;;;;;;9.48;7.30;;;;;;;;;;5091917;28;20516;-68
2023/06/13 00:05:00;;;;;;;12.30;7.55;;;;;;;;;;5091626;28;20055;-68
2023/06/13 00:07:32;;;;;;;12.13;7.68;;;;;;;;;;5090903;28;20339;-68
2023/06/13 00:09:59;;;;;;;10.13;6.97;;;;;;;;;;5091268;28;20098;-68
2023/06/13 00:12:26;;;;;;;9.35;7.50;;;;;;;;;;5091173;28;20054;-68
2023/06/13 00:14:53;;;;;;;9.18;7.32;;;;;;;;;;5091518;28;20489;-68
2023/06/13 00:17:25;;;;;;;10.65;7.50;;;;;;;;;;5090934;28;20046;-68
2023/06/13 00:19:54;;;;;;;8.73;6.47;;;;;;;;;;5091049;28;20075;-68
2023/06/13 00:22:21;;;;;;;11.23;7.63;;;;;;;;;;5090142;28;20044;-68
2023/06/13 00:24:47;;;;;;;8.48;6.85;;;;;;;;;;5091395;28;20087;-68
2023/06/13 00:27:14;;;;;;;9.25;7.35;;;;;;;;;;5090633;28;20083;-68
2023/06/13 00:29:41;;;;;;;9.15;7.45;;;;;;;;;;5090637;28;20562;-68
2023/06/13 00:32:10;;;;;;;10.27;7.70;;;;;;;;;;5090643;28;20048;-67
2023/06/13 00:34:38;;;;;;;10.27;7.22;;;;;;;;;;5090686;28;20050;-68
2023/06/13 00:37:05;;;;;;;9.77;7.20;;;;;;;;;;5090566;28;20052;-68
2023/06/13 00:39:32;;;;;;;10.70;7.25;;;;;;;;;;5090770;28;20432;-67
2023/06/13 00:42:01;;;;;;;8.35;6.53;;;;;;;;;;5090811;28;20040;-68
2023/06/13 00:44:27;;;;;;;8.50;7.28;;;;;;;;;;5090871;28;20410;-68
2023/06/13 00:46:55;;;;;;;11.30;7.45;;;;;;;;;;5090801;28;20050;-68
2023/06/13 00:49:22;;;;;;;8.38;6.60;;;;;;;;;;5090095;28;20044;-69
2023/06/13 00:51:50;;;;;;;11.13;7.25;;;;;;;;;;5090343;28;20044;-68
2023/06/13 00:54:18;;;;;;;10.45;7.57;;;;;;;;;;5090442;28;20064;-68
2023/06/13 00:56:45;;;;;;;10.13;7.35;;;;;;;;;;5090605;28;20131;-68
2023/06/13 00:59:14;;;;;;;9.77;7.22;;;;;;;;;;5090373;28;20473;-68
2023/06/13 01:01:40;;;;;;;9.52;6.72;;;;;;;;;;5090331;28;20493;-68
2023/06/13 01:04:07;;;;;;;10.20;7.40;;;;;;;;;;5090294;28;20580;-68
2023/06/13 01:06:40;;;;;;;8.07;7.03;;;;;;;;;;5090479;28;20074;-68
2023/06/13 01:09:09;;;;;;;;;;;;;;;;;;5090697;28;20485;-68
2023/06/13 01:11:46;;;;;;;9.63;6.18;;;;;;;;;;5090105;28;20006;-68
2023/06/13 01:14:20;;;;;;;10.43;7.68;;;;;;;;;;5090421;28;20109;-68
2023/06/13 01:16:54;;;;;;;10.10;7.10;;;;;;;;;;5090564;28;20083;-68
2023/06/13 01:19:31;;;;;;;9.10;6.80;;;;;;;;;;5090325;28;20467;-69
2023/06/13 01:21:59;;;;;;;8.95;6.93;;;;;;;;;;5090730;28;20135;-68
2023/06/13 01:24:40;;;;;;;8.15;7.00;;;;;;;;;;5090319;28;20054;-68
2023/06/13 01:27:12;;;;;;;10.50;6.90;;;;;;;;;;5090948;28;20056;-68
2023/06/13 01:29:41;;;;;;;11.15;7.05;;;;;;;;;;5089976;28;20055;-68
2023/06/13 01:32:09;;;;;;;9.48;6.78;;;;;;;;;;5090908;28;20048;-68
2023/06/13 01:34:36;;;;;;;11.05;8.32;;;;;;;;;;5094676;28;20410;-68
2023/06/13 01:37:03;;;;;;;8.18;6.97;;;;;;;;;;5098057;28;20139;-68
2023/06/13 01:39:33;;;;;;;7.78;6.63;;;;;;;;;;5094118;28;20048;-68
2023/06/13 01:42:00;;;;;;;9.57;7.10;;;;;;;;;;5094231;28;20043;-68
2023/06/13 01:44:29;;;;;;;9.27;7.30;;;;;;;;;;5094308;28;20056;-68
2023/06/13 01:47:07;;;;;;;8.38;6.82;;;;;;;;;;5093857;28;20470;-68
2023/06/13 01:49:42;;;;;;;8.38;6.80;;;;;;;;;;5092852;28;20044;-68
2023/06/13 01:52:16;;;;;;;10.00;6.80;;;;;;;;;;5093363;28;20050;-67
2023/06/13 01:54:48;;;;;;;8.82;6.72;;;;;;;;;;5092585;28;20056;-68
2023/06/13 01:57:17;;;;;;;7.63;6.57;;;;;;;;;;5072553;28;20095;-68
2023/06/13 01:59:49;;;;;;;10.13;6.90;;;;;;;;;;5073212;28;20405;-68
2023/06/13 02:02:16;;;;;;;10.52;7.43;;;;;;;;;;5072736;28;20045;-68
2023/06/13 02:04:43;;;;;;;9.38;6.80;;;;;;;;;;5073439;28;20054;-68
2023/06/13 02:07:10;;;;;;;8.35;6.57;;;;;;;;;;5072783;28;20040;-68
2023/06/13 02:09:37;;;;;;;7.15;6.07;;;;;;;;;;5092158;28;20075;-68
2023/06/13 02:12:04;;;;;;;9.00;6.75;;;;;;;;;;5093806;28;20040;-69
2023/06/13 02:14:32;;;;;;;11.10;6.72;;;;;;;;;;5093209;28;20091;-69
2023/06/13 02:17:00;;;;;;;8.52;7.00;;;;;;;;;;5092977;28;20055;-68
2023/06/13 02:19:27;;;;;;;10.38;6.75;;;;;;;;;;5093409;28;20044;-68
2023/06/13 02:21:54;;;;;;;8.13;6.60;;;;;;;;;;5093537;28;20482;-69
2023/06/13 02:24:21;;;;;;;8.05;6.47;;;;;;;;;;5092958;28;20052;-68
2023/06/13 02:26:47;;;;;;;9.20;6.85;;;;;;;;;;5093301;28;20505;-68
2023/06/13 02:29:15;;;;;;;8.48;6.68;;;;;;;;;;5092781;28;20048;-68
2023/06/13 02:31:42;;;;;;;7.97;6.53;;;;;;;;;;5093170;28;20521;-68
2023/06/13 02:34:10;;;;;;;9.82;6.55;;;;;;;;;;5093025;28;20044;-68
2023/06/13 02:36:37;;;;;;;9.90;6.70;;;;;;;;;;5093126;28;20048;-68
2023/06/13 02:39:04;;;;;;;9.10;6.63;;;;;;;;;;5079115;28;20045;-68
2023/06/13 02:41:31;;;;;;;7.53;6.20;;;;;;;;;;5072134;28;20044;-68
2023/06/13 02:43:57;;;;;;;7.55;6.03;;;;;;;;;;5072146;28;20047;-68
2023/06/13 02:46:24;;;;;;;8.48;6.20;;;;;;;;;;5071890;28;20048;-69
2023/06/13 02:48:54;;;;;;;10.20;6.65;;;;;;;;;;5072430;28;20050;-69
2023/06/13 02:51:22;;;;;;;8.63;6.57;;;;;;;;;;5072091;28;20048;-68
2023/06/13 02:53:49;;;;;;;8.18;6.38;;;;;;;;;;5072830;28;20056;-69
2023/06/13 02:56:15;;;;;;;10.85;7.28;;;;;;;;;;5071934;28;20049;-68
2023/06/13 02:58:42;;;;;;;8.00;6.05;;;;;;;;;;5072911;28;20049;-69
2023/06/13 03:01:09;;;;;;;8.50;6.40;;;;;;;;;;5071915;28;20080;-68
2023/06/13 03:03:37;;;;;;;9.85;6.53;;;;;;;;;;5072709;28;20052;-68
2023/06/13 03:06:04;;;;;;;10.77;6.90;;;;;;;;;;5072472;28;20070;-68
2023/06/13 03:08:32;;;;;;;7.93;5.93;;;;;;;;;;5072280;28;20479;-69
2023/06/13 03:10:59;;;;;;;8.00;6.57;;;;;;;;;;5071842;28;20044;-68
2023/06/13 03:13:27;;;;;;;7.78;6.50;;;;;;;;;;5072295;28;20072;-68
2023/06/13 03:15:57;;;;;;;8.27;6.28;;;;;;;;;;5072367;28;20047;-70
2023/06/13 03:18:23;;;;;;;11.55;6.53;;;;;;;;;;5071946;28;20052;-68
2023/06/13 03:20:50;;;;;;;8.85;6.88;;;;;;;;;;5071901;28;20044;-69
2023/06/13 03:23:17;;;;;;;9.55;6.80;;;;;;;;;;5072294;28;20060;-69
2023/06/13 03:25:45;;;;;;;8.80;6.50;;;;;;;;;;5079136;22;20560;-67
2023/06/13 03:28:12;;;;;;;10.45;6.63;;;;;;;;;;5051390;28;20112;-67
2023/06/13 03:30:38;;;;;;;9.30;6.70;;;;;;;;;;5051652;28;20052;-67
2023/06/13 03:33:05;;;;;;;9.98;6.22;;;;;;;;;;5051397;28;20056;-67
2023/06/13 03:35:32;;;;;;;7.63;6.15;;;;;;;;;;5052121;28;20510;-67
2023/06/13 03:37:59;;;;;;;8.40;6.70;;;;;;;;;;5051673;28;20056;-67
2023/06/13 03:40:25;;;;;;;10.23;6.15;;;;;;;;;;5050836;28;20049;-67
2023/06/13 03:42:53;;;;;;;9.15;6.63;;;;;;;;;;5052091;28;20509;-67
2023/06/13 03:45:20;;;;;;;7.75;5.90;;;;;;;;;;5051717;28;20045;-67
2023/06/13 03:47:46;;;;;;;9.52;6.40;;;;;;;;;;5051682;28;20045;-67
2023/06/13 03:50:13;;;;;;;9.25;6.80;;;;;;;;;;5051205;28;20045;-67
2023/06/13 03:52:40;;;;;;;11.30;6.70;;;;;;;;;;5051343;28;20044;-67
2023/06/13 03:55:06;;;;;;;9.25;6.28;;;;;;;;;;5050979;28;20135;-67
2023/06/13 03:57:33;;;;;;;12.05;6.47;;;;;;;;;;5050163;28;20049;-67
2023/06/13 04:00:01;;;;;;;7.55;5.90;;;;;;;;;;5049694;28;20490;-67
2023/06/13 04:02:27;;;;;;;9.15;6.40;;;;;;;;;;5051180;28;20064;-67
2023/06/13 04:04:56;;;;;;;9.38;6.50;;;;;;;;;;5051411;28;20056;-67
2023/06/13 04:07:23;;;;;;;11.73;6.68;;;;;;;;;;5050758;28;20494;-67
2023/06/13 04:09:50;;;;;;;9.43;6.20;;;;;;;;;;5051182;28;20494;-67
2023/06/13 04:12:16;;;;;;;11.43;6.55;;;;;;;;;;5050940;28;20041;-67
2023/06/13 04:14:43;;;;;;;13.40;6.55;;;;;;;;;;5051181;28;20051;-67
2023/06/13 04:17:11;;;;;;;9.75;6.15;;;;;;;;;;5050405;28;20052;-67
2023/06/13 04:19:38;;;;;;;8.38;5.90;;;;;;;;;;5050227;28;20053;-68
2023/06/13 04:22:05;;;;;;;10.30;6.68;;;;;;;;;;5050335;28;20063;-67
2023/06/13 04:24:32;;;;;;;10.85;6.40;;;;;;;;;;5051051;28;20053;-67
2023/06/13 04:27:00;;;;;;;10.15;7.20;;;;;;;;;;5050433;28;20063;-67
2023/06/13 04:29:28;;;;;;;9.15;6.35;;;;;;;;;;5050519;28;20045;-67
2023/06/13 04:31:55;;;;;;;11.77;6.90;;;;;;;;;;5050213;28;20053;-67
2023/06/13 04:34:24;;;;;;;10.63;6.05;;;;;;;;;;5050457;28;20045;-67
2023/06/13 04:36:55;;;;;;;7.82;6.03;;;;;;;;;;5050211;28;20071;-67
2023/06/13 04:39:24;;;;;;;8.75;6.55;;;;;;;;;;5050967;28;20045;-67
2023/06/13 04:41:55;;;;;;;9.05;5.88;;;;;;;;;;5050529;28;20049;-67
2023/06/13 04:44:25;;;;;;;12.65;7.15;;;;;;;;;;5050661;28;20045;-67
2023/06/13 04:46:52;;;;;;;8.35;6.05;;;;;;;;;;5050685;28;20064;-67
2023/06/13 04:49:18;;;;;;;7.53;6.03;;;;;;;;;;5050545;28;20136;-67
2023/06/13 04:51:47;;;;;;;8.35;6.32;;;;;;;;;;5050633;28;20056;-67
2023/06/13 04:54:15;;;;;;;13.35;6.30;;;;;;;;;;5050533;28;20095;-67
2023/06/13 04:56:43;;;;;;;11.02;6.60;;;;;;;;;;5051089;28;20096;-67
2023/06/13 04:59:10;;;;;;;10.52;5.97;;;;;;;;;;5051363;28;20052;-68
2023/06/13 05:01:37;;;;;;;10.98;7.03;;;;;;;;;;5050065;28;20593;-67
2023/06/13 05:04:04;;;;;;;8.50;6.10;;;;;;;;;;5050432;28;20106;-67
2023/06/13 05:06:31;;;;;;;8.77;5.95;;;;;;;;;;5050504;28;20418;-66
2023/06/13 05:08:59;;;;;;;11.10;5.93;;;;;;;;;;5049582;28;20063;-67
2023/06/13 05:11:25;;;;;;;7.43;5.43;;;;;;;;;;5049738;28;20068;-67
2023/06/13 05:13:52;;;;;;;5.97;5.25;;;;;;;;;;5049452;28;20084;-67
2023/06/13 05:16:19;;;;;;;10.20;4.72;;;;;;;;;;5050404;28;20045;-68
2023/06/13 05:18:46;;;;;;;7.72;5.32;;;;;;;;;;5050371;28;20068;-67
2023/06/13 05:21:16;;;;;;;9.65;5.40;;;;;;;;;;5049623;28;20053;-67
2023/06/13 05:23:44;;;;;;;6.25;4.68;;;;;;;;;;5050532;28;20139;-67
2023/06/13 05:26:12;;;;;;;7.80;4.47;;;;;;;;;;5049556;28;20099;-66
2023/06/13 05:28:38;;;;;;;6.60;4.90;;;;;;;;;;5049760;28;20049;-66
2023/06/13 05:31:05;;;;;;;8.15;4.43;;;;;;;;;;5049653;28;20041;-66
2023/06/13 05:33:33;;;;;;;8.63;4.55;;;;;;;;;;5050429;28;20434;-66
2023/06/13 05:36:00;;;;;;;7.70;4.70;;;;;;;;;;5049522;28;20053;-66
2023/06/13 05:38:26;;;;;;;6.95;5.22;;;;;;;;;;5050265;28;20045;-67
2023/06/13 05:40:53;;;;;;;10.48;5.32;;;;;;;;;;5049780;28;20425;-66
2023/06/13 05:43:21;;;;;;;8.38;5.32;;;;;;;;;;5049796;28;20418;-66
2023/06/13 05:45:48;;;;;;;7.65;5.20;;;;;;;;;;5049632;28;20140;-66
2023/06/13 05:48:14;;;;;;;5.90;4.60;;;;;;;;;;5050356;28;20501;-65
2023/06/13 05:50:41;;;;;;;8.13;5.43;;;;;;;;;;5049508;28;20041;-66
2023/06/13 05:53:08;;;;;;;13.15;4.72;;;;;;;;;;5050314;28;20140;-67
2023/06/13 05:55:34;;;;;;;5.70;4.35;;;;;;;;;;5050186;28;20508;-66
2023/06/13 05:58:01;;;;;;;6.18;4.40;;;;;;;;;;5049611;28;20060;-66
2023/06/13 06:00:29;;;;;;;7.18;4.63;;;;;;;;;;5050115;28;20116;-66
2023/06/13 06:02:55;;;;;;;6.18;4.25;;;;;;;;;;5049357;28;20428;-66
2023/06/13 06:05:24;;;;;;;7.38;4.22;;;;;;;;;;5049921;28;20387;-67
2023/06/13 06:07:50;;;;;;;8.55;4.10;;;;;;;;;;5049209;28;20505;-66
2023/06/13 06:10:17;;;;;;;9.02;4.10;;;;;;;;;;5049329;28;20048;-67
2023/06/13 06:12:43;;;;;;;8.85;4.45;;;;;;;;;;5049743;28;20126;-67
2023/06/13 06:15:11;;;;;;;7.22;4.03;;;;;;;;;;5050039;28;20045;-66
2023/06/13 06:17:39;;;;;;;9.75;3.63;;;;;;;;;;5049311;28;20507;-67
2023/06/13 06:20:07;;;;;;;15.45;4.75;;;;;;;;;;5051075;28;20041;-66
2023/06/13 06:22:35;;;;;;;8.18;3.80;;;;;;;;;;5053258;28;20049;-66
2023/06/13 06:25:02;;;;;;;4.93;3.53;;;;;;;;;;5053616;28;20053;-66
2023/06/13 06:27:28;;;;;;;12.18;4.30;;;;;;;;;;5052802;28;20141;-66
2023/06/13 06:29:55;;;;;;;6.20;4.40;;;;;;;;;;5053275;28;20046;-66
2023/06/13 06:32:21;;;;;;;7.43;3.88;;;;;;;;;;5050134;28;20064;-67
2023/06/13 06:34:49;;;;;;;9.85;4.38;;;;;;;;;;5046145;28;20048;-69
2023/06/13 06:37:16;;;;;;;5.35;3.85;;;;;;;;;;5045595;28;20044;-66
2023/06/13 06:39:42;;;;;;;7.30;3.72;;;;;;;;;;5051649;28;20045;-66
2023/06/13 06:42:10;;;;;;;5.38;3.55;;;;;;;;;;5047407;28;20041;-67
2023/06/13 06:44:36;;;;;;;6.38;4.05;;;;;;;;;;5035704;28;20040;-67
2023/06/13 06:47:03;;;;;;;4.88;3.58;;;;;;;;;;5050888;28;20049;-68
2023/06/13 06:49:30;;;;;;;4.63;3.70;;;;;;;;;;5051399;28;20514;-68
2023/06/13 06:51:58;;;;;;;5.70;3.35;;;;;;;;;;5049817;28;20059;-69
2023/06/13 06:54:25;;;;;;;4.25;3.60;;;;;;;;;;5052614;28;20045;-71
2023/06/13 06:56:51;;;;;;;6.53;3.97;;;;;;;;;;5049969;28;20041;-69
2023/06/13 06:59:18;;;;;;;4.38;3.33;;;;;;;;;;5044302;28;20040;-69
2023/06/13 07:01:44;;;;;;;5.03;3.45;;;;;;;;;;5051226;28;20530;-69
2023/06/13 07:04:11;;;;;;;6.88;3.90;;;;;;;;;;5047580;28;20045;-68
2023/06/13 07:06:37;;;;;;;7.60;3.80;;;;;;;;;;5035721;28;20052;-68
2023/06/13 07:09:06;;;;;;;5.10;3.10;;;;;;;;;;5035200;28;20044;-68
2023/06/13 07:11:33;;;;;;;8.13;3.75;;;;;;;;;;5042658;28;20040;-69
2023/06/13 07:14:00;;;;;;;7.03;4.00;;;;;;;;;;5047899;28;20077;-70
2023/06/13 07:16:26;;;;;;;5.95;3.75;;;;;;;;;;5039618;28;20136;-71
2023/06/13 07:18:53;;;;;;;5.57;3.55;;;;;;;;;;5051438;28;20041;-69
2023/06/13 07:21:19;;;;;;;6.70;3.53;;;;;;;;;;5046673;28;20045;-69
2023/06/13 07:23:46;;;;;;;7.53;4.03;;;;;;;;;;5045581;28;20037;-69
2023/06/13 07:26:15;;;;;;;6.78;3.70;;;;;;;;;;5044231;28;20072;-68
2023/06/13 07:28:41;;;;;;;4.68;3.40;;;;;;;;;;5042278;28;20051;-67
2023/06/13 07:31:08;;;;;;;3.72;3.15;;;;;;;;;;5041271;28;20041;-69
2023/06/13 07:33:35;;;;;;;7.00;3.45;;;;;;;;;;5050800;28;20041;-67
2023/06/13 07:36:02;;;;;;;4.50;3.13;;;;;;;;;;5042315;28;20096;-70
2023/06/13 07:38:29;;;;;;;3.95;2.83;;;;;;;;;;5048071;28;20051;-69
2023/06/13 07:40:56;;;;;;;4.30;3.33;;;;;;;;;;5038229;28;20041;-69
2023/06/13 07:43:24;;;;;;;6.43;3.25;;;;;;;;;;5042537;28;20047;-69
2023/06/13 07:45:50;;;;;;;6.25;2.80;;;;;;;;;;5042568;28;20045;-69
2023/06/13 07:48:17;;;;;;;5.13;3.25;;;;;;;;;;5050824;28;20136;-68
2023/06/13 07:50:45;;;;;;;4.18;2.88;;;;;;;;;;5050264;28;20044;-69
2023/06/13 07:53:12;;;;;;;2.85;2.55;;;;;;;;;;5051073;28;20501;-69
2023/06/13 07:55:40;;;;;;;4.03;2.97;;;;;;;;;;5048998;28;20041;-69
2023/06/13 07:58:07;;;;;;;4.47;2.95;;;;;;;;;;5050683;28;20128;-69
2023/06/13 08:00:34;;;;;;;6.65;3.03;;;;;;;;;;5050057;28;20055;-69
2023/06/13 08:03:01;;;;;;;4.78;3.10;;;;;;;;;;5051588;28;20091;-69
2023/06/13 08:05:28;;;;;;;5.50;3.05;;;;;;;;;;5051021;28;20049;-68
2023/06/13 08:07:55;;;;;;;5.38;2.70;;;;;;;;;;5051175;28;20127;-69
2023/06/13 08:10:22;;;;;;;6.05;2.83;;;;;;;;;;5050629;28;20095;-70
2023/06/13 08:12:49;;;;;;;3.97;2.97;;;;;;;;;;5048874;28;20037;-69
2023/06/13 08:15:16;;;;;;;7.10;3.03;;;;;;;;;;5049613;28;20037;-69
2023/06/13 08:17:44;;;;;;;4.40;2.90;;;;;;;;;;5049475;28;20132;-69
2023/06/13 08:20:11;;;;;;;4.45;2.72;;;;;;;;;;5043720;28;20044;-69
2023/06/13 08:22:38;;;;;;;4.63;2.75;;;;;;;;;;5041426;28;20048;-67
2023/06/13 08:25:07;;;;;;;2.88;2.55;;;;;;;;;;5045385;28;20037;-69
2023/06/13 08:27:35;;;;;;;4.13;2.97;;;;;;;;;;5046765;28;20037;-68
2023/06/13 08:30:03;;;;;;;3.55;2.47;;;;;;;;;;5039731;28;20670;-69
2023/06/13 08:32:31;;;;;;;3.40;2.75;;;;;;;;;;5039990;28;20407;-71
2023/06/13 08:34:59;;;;;;;3.65;2.55;;;;;;;;;;5045827;28;20045;-68
2023/06/13 08:37:26;;;;;;;6.10;3.15;;;;;;;;;;5048009;28;20072;-69
2023/06/13 08:39:52;;;;;;;4.93;2.95;;;;;;;;;;5044396;28;20335;-69
2023/06/13 08:42:20;;;;;;;3.60;2.50;;;;;;;;;;5045251;28;20048;-69
2023/06/13 08:44:47;;;;;;;6.07;2.72;;;;;;;;;;5042159;28;20061;-69
2023/06/13 08:47:16;;;;;;;3.28;2.60;;;;;;;;;;5041100;28;20411;-70
2023/06/13 08:49:42;;;;;;;2.60;2.40;;;;;;;;;;5047455;28;20045;-69
2023/06/13 08:52:13;;;;;;;4.43;2.80;;;;;;;;;;5045605;28;20530;-69
2023/06/13 08:54:44;;;;;;;3.50;2.70;;;;;;;;;;5031092;28;20148;-70
2023/06/13 08:57:15;;;;;;;3.95;2.80;;;;;;;;;;5028861;28;20053;-70
2023/06/13 08:59:44;;;;;;;3.28;2.80;;;;;;;;;;5037796;28;20492;-70
2023/06/13 09:02:13;;;;;;;4.00;2.70;;;;;;;;;;5041041;28;20041;-69
2023/06/13 09:04:40;;;;;;;6.82;2.63;;;;;;;;;;5047094;28;20045;-70
2023/06/13 09:07:07;;;;;;;4.57;2.90;;;;;;;;;;5039129;28;20044;-69
2023/06/13 09:09:35;;;;;;;4.03;2.90;;;;;;;;;;5040612;28;20073;-69
2023/06/13 09:12:06;;;;;;;5.38;2.90;;;;;;;;;;5043578;28;20500;-69
2023/06/13 09:14:32;;;;;;;4.82;3.05;;;;;;;;;;5033440;28;20063;-69
2023/06/13 09:16:59;;;;;;;4.90;3.13;;;;;;;;;;5032577;28;20049;-69
2023/06/13 09:19:26;;;;;;;4.13;3.03;;;;;;;;;;5038345;28;20494;-69
2023/06/13 09:21:52;;;;;;;4.18;3.08;;;;;;;;;;5038400;28;20095;-69
2023/06/13 09:24:19;;;;;;;4.30;2.67;;;;;;;;;;5039472;28;20380;-69
2023/06/13 09:26:48;;;;;;;3.03;2.47;;;;;;;;;;5063703;22;20053;-67
2023/06/13 09:29:14;;;;;;;6.20;3.30;;;;;;;;;;5058688;28;20158;-70
2023/06/13 09:31:41;;;;;;;5.25;2.85;;;;;;;;;;5046868;28;22049;-69
2023/06/13 09:34:07;;;;;;;3.42;2.85;;;;;;;;;;5059102;28;20127;-68
2023/06/13 09:36:35;;;;;;;3.92;2.92;;;;;;;;;;5067694;28;20040;-68
2023/06/13 09:39:04;;;;;;;3.50;2.50;;;;;;;;;;5060314;28;20048;-69
2023/06/13 09:41:31;;;;;;;4.35;3.38;;;;;;;;;;5060707;28;20139;-69
2023/06/13 09:44:03;;;;;;;8.90;3.30;;;;;;;;;;5067755;28;20041;-68
2023/06/13 09:46:29;;;;;;;;;;;;;;;;;;5066004;28;20385;-69
2023/06/13 09:48:56;;;;;;;;;;;;;;;;;;5046548;28;19960;-68
2023/06/13 09:51:22;;;;;;;;;;;;;;;;;;5059546;28;19925;-69
2023/06/13 09:53:49;;;;;;;;;;;;;;;;;;5065543;28;19921;-68
2023/06/13 09:56:16;;;;;;;;;;;;;;;;;;5072855;28;20012;-68
2023/06/13 09:58:42;;;;;;;;;;;;;;;;;;5069152;28;19939;-69
2023/06/13 10:01:15;;;;;;;;;;;;;;;;;;5073250;28;19924;-68
2023/06/13 10:03:42;;;;;;;;;;;;;;;;;;5073152;28;20333;-69
2023/06/13 10:06:08;;;;;;;;;;;;;;;;;;5073409;28;19970;-69
2023/06/13 10:08:35;;;;;;;;;;;;;;;;;;5069960;28;19924;-69
2023/06/13 10:11:03;;;;;;;;;;;;;;;;;;5055785;28;19921;-69
2023/06/13 10:13:33;;;;;;;;;;;;;;;;;;5053527;28;19920;-69
2023/06/13 10:16:00;;;;;;;;;;;;;;;;;;5059610;28;19972;-68
2023/06/13 10:18:30;;;;;;;;;;;;;;;;;;5053689;28;19924;-69
2023/06/13 10:20:57;;;;;;;;;;;;;;;;;;5052661;28;19920;-69
2023/06/13 10:23:26;;;;;;;;;;;;;;;;;;5052809;28;20383;-69
2023/06/13 10:25:53;;;;;;;;;;;;;;;;;;5069352;28;19920;-69
2023/06/13 10:28:25;;;;;;;;;;;;;;;;;;5072498;28;19924;-69
2023/06/13 10:30:56;;;;;;;;;;;;;;;;;;5062737;28;19968;-69
2023/06/13 10:33:39;;;;;;;;;;;;;;;;;;5069108;28;20020;-69
2023/06/13 10:36:11;;;;;;;;;;;;;;;;;;5072777;28;19920;-69
2023/06/13 10:38:59;;;;;;;;;;;;;;;;;;5071935;28;19920;-69
2023/06/13 10:41:44;;;;;;;;;;;;;;;;;;5070950;28;19927;-69
2023/06/13 10:44:14;;;;;;;;;;;;;;;;;;5072195;28;19920;-69
2023/06/13 10:46:41;;;;;;;;;;;;;;;;;;5070261;28;19921;-69
2023/06/13 10:49:13;;;;;;;;;;;;;;;;;;5071200;28;19921;-69
2023/06/13 10:51:42;;;;;;;;;;;;;;;;;;5068625;28;19921;-69
2023/06/13 10:54:09;;;;;;;;;;;;;;;;;;5069153;28;19927;-69
2023/06/13 10:56:39;;;;;;;;;;;;;;;;;;5051428;28;19974;-69
2023/06/13 10:59:06;;;;;;;;;;;;;;;;;;5056933;28;20289;-69
2023/06/13 11:01:33;;;;;;;;;;;;;;;;;;5065195;28;19942;-70
2023/06/13 11:04:10;;;;;;;;;;;;;;;;;;5055398;28;19925;-69
2023/06/13 11:06:37;;;;;;;;;;;;;;;;;;5060996;28;19965;-69
2023/06/13 11:09:14;;;;;;;;;;;;;;;;;;5065259;28;19920;-69
2023/06/13 11:11:43;;;;;;;;;;;;;;;;;;5071434;28;20292;-69
2023/06/13 11:14:10;;;;;;;;;;;;;;;;;;5065257;28;19939;-69
2023/06/13 11:16:37;;;;;;;;;;;;;;;;;;5059955;28;19927;-69
2023/06/13 11:19:05;;;;;;;;;;;;;;;;;;5057805;28;19926;-69
2023/06/13 11:21:33;;;;;;;;;;;;;;;;;;5052180;28;19921;-69
2023/06/13 11:24:00;;;;;;;;;;;;;;;;;;5051601;28;19924;-69
2023/06/13 11:26:26;;;;;;;;;;;;;;;;;;5051596;28;19927;-69
2023/06/13 11:28:54;;;;;;;;;;;;;;;;;;5052198;28;19963;-69
2023/06/13 11:31:21;;;;;;;;;;;;;;;;;;5051469;28;19924;-69
2023/06/13 11:33:48;;;;;;;;;;;;;;;;;;5052321;28;19927;-70
2023/06/13 11:36:15;;;;;;;;;;;;;;;;;;5059761;28;19920;-69
2023/06/13 11:38:44;;;;;;;;;;;;;;;;;;5071595;28;19962;-69
2023/06/13 11:41:11;;;;;;;;;;;;;;;;;;5072454;28;20357;-70
2023/06/13 11:43:38;;;;;;;;;;;;;;;;;;5073063;28;19924;-69
2023/06/13 11:46:05;;;;;;;;;;;;;;;;;;5072835;28;19920;-70
2023/06/13 11:48:31;;;;;;;;;;;;;;;;;;5072981;28;20023;-70
2023/06/13 11:51:08;;;;;;;;;;;;;;;;;;5068750;28;19942;-69
2023/06/13 11:53:47;;;;;;;;;;;;;;;;;;5071904;28;19927;-69
2023/06/13 11:56:15;;;;;;;;;;;;;;;;;;5071306;28;19927;-69
2023/06/13 11:58:41;;;;;;;;;;;;;;;;;;5071764;28;19972;-69
2023/06/13 12:01:08;;;;;;;;;;;;;;;;;;5071047;28;19920;-69
2023/06/13 12:03:37;;;;;;;;;;;;;;;;;;5071615;28;19920;-69
2023/06/13 12:06:06;;;;;;;;;;;;;;;;;;5071644;28;19920;-69
2023/06/13 12:08:33;;;;;;;;;;;;;;;;;;5071009;28;19920;-69
2023/06/13 12:11:02;;;;;;;;;;;;;;;;;;5071524;28;20292;-69
2023/06/13 12:13:29;;;;;;;;;;;;;;;;;;5071046;28;19921;-69
2023/06/13 12:15:55;;;;;;;;;;;;;;;;;;5071650;28;19942;-69
2023/06/13 12:18:21;;;;;;;;;;;;;;;;;;5070268;28;19920;-69
2023/06/13 12:20:49;;;;;;;;;;;;;;;;;;5071068;28;19930;-69
2023/06/13 12:23:17;;;;;;;;;;;;;;;;;;5070934;28;20343;-69
2023/06/13 12:25:44;;;;;;;;;;;;;;;;;;5063903;28;19927;-69
2023/06/13 12:28:15;;;;;;;;;;;;;;;;;;5051037;28;19924;-69
2023/06/13 12:30:42;;;;;;;;;;;;;;;;;;5050912;28;19924;-69
2023/06/13 12:33:09;;;;;;;;;;;;;;;;;;5050889;28;19981;-69
2023/06/13 12:35:35;;;;;;;;;;;;;;;;;;5051040;28;20001;-69
2023/06/13 12:38:01;;;;;;;;;;;;;;;;;;5057539;28;19920;-69
2023/06/13 12:40:31;;;;;;;;;;;;;;;;;;5070552;28;19931;-69
2023/06/13 12:43:00;;;;;;;;;;;;;;;;;;5070893;28;19920;-69
2023/06/13 12:45:28;;;;;;;;;;;;;;;;;;5070489;28;19971;-69
2023/06/13 12:47:56;;;;;;;;;;;;;;;;;;5069431;28;19974;-69
2023/06/13 12:50:23;;;;;;;;;;;;;;;;;;5061610;28;19995;-69
2023/06/13 12:52:50;;;;;;;;;;;;;;;;;;5062111;28;20161;-69
2023/06/13 12:55:19;;;;;;;;;;;;;;;;;;5058290;28;19921;-70
2023/06/13 12:57:45;;;;;;;;;;;;;;;;;;5049325;28;19920;-70
2023/06/13 13:00:19;;;;;;;;;;;;;;;;;;5049361;28;20019;-69
2023/06/13 13:02:47;;;;;;;;;;;;;;;;;;5052783;28;20371;-69
2023/06/13 13:05:14;;;;;;;;;;;;;;;;;;5049307;28;19974;-69
2023/06/13 13:07:40;;;;;;;;;;;;;;;;;;5049110;28;20077;-69
2023/06/13 13:10:08;;;;;;;;;;;;;;;;;;5049455;28;20435;-69
2023/06/13 13:12:35;;;;;;;;;;;;;;;;;;5049831;28;20389;-68
2023/06/13 13:15:01;;;;;;;;;;;;;;;;;;5056518;28;19946;-69
2023/06/13 13:17:27;;;;;;;;;;;;;;;;;;5064148;28;20412;-69
2023/06/13 13:19:56;;;;;;;;;;;;;;;;;;5067491;28;20345;-69
2023/06/13 13:22:23;;;;;;;;;;;;;;;;;;5059828;28;19935;-69
2023/06/13 13:24:49;;;;;;;;;;;;;;;;;;5062704;28;19928;-69
2023/06/13 13:27:15;;;;;;;;;;;;;;;;;;5063141;28;19925;-69
2023/06/13 13:29:42;;;;;;;;;;;;;;;;;;5067285;28;19920;-69
2023/06/13 13:32:09;;;;;;;;;;;;;;;;;;5053717;28;19925;-69
2023/06/13 13:34:36;;;;;;;;;;;;;;;;;;5049025;28;19921;-69
2023/06/13 13:37:04;;;;;;;;;;;;;;;;;;5060693;28;19920;-70
2023/06/13 13:39:30;;;;;;;;;;;;;;;;;;5066364;28;20277;-69
2023/06/13 13:41:56;;;;;;;;;;;;;;;;;;5069174;28;20345;-70
2023/06/13 13:44:23;;;;;;;;;;;;;;;;;;5067266;28;19921;-70
2023/06/13 13:46:49;;;;;;;;;;;;;;;;;;5058417;28;19921;-69
2023/06/13 13:49:16;;;;;;;;;;;;;;;;;;5062322;28;19920;-69
2023/06/13 13:51:42;;;;;;;;;;;;;;;;;;5062188;28;19921;-69
2023/06/13 13:54:11;;;;;;;;;;;;;;;;;;5057205;28;19928;-69
2023/06/13 13:56:37;;;;;;;;;;;;;;;;;;5048263;28;20401;-69
2023/06/13 13:59:03;;;;;;;;;;;;;;;;;;5048874;28;20382;-70
2023/06/13 14:01:30;;;;;;;;;;;;;;;;;;5055217;28;19928;-69
2023/06/13 14:03:56;;;;;;;;;;;;;;;;;;5069461;28;20312;-70
2023/06/13 14:06:23;;;;;;;;;;;;;;;;;;5059382;28;19963;-70
2023/06/13 14:08:49;;;;;;;;;;;;;;;;;;5068351;28;19928;-69
2023/06/13 14:11:17;;;;;;;;;;;;;;;;;;5057765;28;19921;-70
2023/06/13 14:13:43;;;;;;;;;;;;;;;;;;5048347;28;19920;-69
2023/06/13 14:16:10;;;;;;;;;;;;;;;;;;5055460;28;19920;-69
2023/06/13 14:18:36;;;;;;;;;;;;;;;;;;5055423;28;20362;-70
2023/06/13 14:21:03;;;;;;;;;;;;;;;;;;5056399;28;20304;-70
2023/06/13 14:23:29;;;;;;;;;;;;;;;;;;5069715;28;19927;-70
2023/06/13 14:25:55;;;;;;;;;;;;;;;;;;5069036;28;19928;-70
2023/06/13 14:28:23;;;;;;;;;;;;;;;;;;5069753;28;19920;-70
2023/06/13 14:30:50;;;;;;;;;;;;;;;;;;5063905;28;20373;-69
2023/06/13 14:33:17;;;;;;;;;;;;;;;;;;5069665;28;19927;-70
2023/06/13 14:35:44;;;;;;;;;;;;;;;;;;5069146;28;20346;-69
2023/06/13 14:38:10;;;;;;;;;;;;;;;;;;5069834;28;20328;-70
2023/06/13 14:40:37;;;;;;;;;;;;;;;;;;5057438;28;19920;-69
2023/06/13 14:43:03;;;;;;;;;;;;;;;;;;5068040;28;19920;-70
2023/06/13 14:45:31;;;;;;;;;;;;;;;;;;5069987;28;19927;-70
2023/06/13 14:47:58;;;;;;;;;;;;;;;;;;5071514;28;19920;-69
2023/06/13 14:50:24;;;;;;;;;;;;;;;;;;5071958;28;19920;-70
2023/06/13 14:52:50;;;;;;;;;;;;;;;;;;5065488;28;19992;-70
2023/06/13 14:55:17;;;;;;;;;;;;;;;;;;5069747;28;20294;-69
2023/06/13 14:57:43;;;;;;;;;;;;;;;;;;5066958;28;19931;-69
2023/06/13 15:00:10;;;;;;;;;;;;;;;;;;5054834;28;19921;-69
2023/06/13 15:02:38;;;;;;;;;;;;;;;;;;5052920;28;19924;-69
2023/06/13 15:05:05;;;;;;;;;;;;;;;;;;5052402;28;20294;-69
2023/06/13 15:07:32;;;;;;;;;;;;;;;;;;5052958;28;19975;-69
2023/06/13 15:09:58;;;;;;;;;;;;;;;;;;5051793;28;19924;-68
2023/06/13 15:12:24;;;;;;;;;;;;;;;;;;5053178;28;19920;-70
2023/06/13 15:14:51;;;;;;;;;;;;;;;;;;5052321;28;19926;-69
2023/06/13 15:17:17;;;;;;;;;;;;;;;;;;5052607;28;20003;-69
2023/06/13 15:19:45;;;;;;;;;;;;;;;;;;5051873;28;19920;-69
2023/06/13 15:22:11;;;;;;;;;;;;;;;;;;5052563;28;20401;-68
2023/06/13 15:27:12;;;;;;;;;;;;;;;;;;5051685;28;20377;-66